Gerd Maersk — OYGM2 — position and weather

sailwx.info

Track history (hours):
 
Tides and Currents Weather Stations Pressure Air Temp Water Temp Dewpoint Dewpoint Depression Visibility Wind Speed Wind Dir Waves Ship Positions

Gerd Maersk

Last reported at 2016-Feb-06 04:18 UTC. Time now 2016-Feb-07 10:37 UTC.
Position N 38°10' W 125°06'.

Length 367 m; draft 12.1 m.

Type: Ship (hazmat cat A). MMSI: 220415000.

Date/timePositionNaut miles runAvg speedWind from/ knotsBaromVisibWave heightAir tempDewpointWater temp
2016-Feb-06 04:18N 38°10' W 125°06'1011.4
2016-Feb-06 03:26N 38°10' W 124°53'1011.5
2016-Feb-06 02:33N 38°10' W 124°40'1111.5
2016-Feb-06 01:33N 38°09' W 124°26'1111.5
2016-Feb-06 00:33N 38°09' W 124°11'1111.4
2016-Feb-05 23:33N 38°09' W 123°57'1111.5
2016-Feb-05 22:33N 38°09' W 123°42'1111.3
2016-Feb-05 21:33N 38°09' W 123°28'9 9.4
2016-Feb-05 20:33N 38°05' W 123°17'1110.8
2016-Feb-05 19:33N 37°58' W 123°07'1211.6
2016-Feb-05 18:33N 37°52' W 122°54'1212.1
2016-Feb-05 17:33N 37°46' W 122°41'1413.8
2016-Feb-05 16:33N 37°50' W 122°24'4 4.0
2016-Feb-05 15:33N 37°49' W 122°19'0 0.0
2016-Feb-05 14:33N 37°49' W 122°19'0 0.0
2016-Feb-05 13:33N 37°49' W 122°19'0 0.0
2016-Feb-05 12:33N 37°49' W 122°19'0 0.0
2016-Feb-05 11:33N 37°49' W 122°19'0 0.0
2016-Feb-05 10:30N 37°49' W 122°19'0 0.0
2016-Feb-05 09:30N 37°49' W 122°19'0 0.0
2016-Feb-05 08:30N 37°49' W 122°19'0 0.0
2016-Feb-05 07:30N 37°49' W 122°19'0 0.0
2016-Feb-05 06:33N 37°49' W 122°19'0 0.0
2016-Feb-05 05:33N 37°49' W 122°19'0 0.0
2016-Feb-05 04:33N 37°49' W 122°19'0 0.0
2016-Feb-05 03:33N 37°49' W 122°19'0 0.0
2016-Feb-05 02:33N 37°49' W 122°19'0 0.0
2016-Feb-05 01:33N 37°49' W 122°19'0 0.0
2016-Feb-05 00:33N 37°49' W 122°19'0 0.0
2016-Feb-04 23:33N 37°49' W 122°19'0 0.0
2016-Feb-04 22:30N 37°49' W 122°19'0 0.0
2016-Feb-04 21:33N 37°49' W 122°19'0 0.0
2016-Feb-04 20:33N 37°49' W 122°19'0 0.0
2016-Feb-04 19:33N 37°49' W 122°19'0 0.0
2016-Feb-04 18:33N 37°49' W 122°19'0 0.0
2016-Feb-04 17:33N 37°49' W 122°19'0 0.0
2016-Feb-04 16:33N 37°49' W 122°19'0 0.0
2016-Feb-04 15:33N 37°49' W 122°19'0 0.0
2016-Feb-04 14:33N 37°49' W 122°19'0 0.0
2016-Feb-04 13:33N 37°49' W 122°19'0 0.0
2016-Feb-04 12:33N 37°49' W 122°19'0 0.0
2016-Feb-04 11:33N 37°49' W 122°19'4 3.6
2016-Feb-04 10:33N 37°49' W 122°24'1211.7
2016-Feb-04 09:33N 37°46' W 122°38'9 9.1
2016-Feb-04 08:33N 37°37' W 122°40'9 9.4
2016-Feb-04 07:33N 37°27' W 122°39'1110.7
2016-Feb-04 06:33N 37°17' W 122°39'1111.0
2016-Feb-04 05:33N 37°06' W 122°35'1110.6
2016-Feb-04 04:33N 36°56' W 122°31'1210.7
2016-Feb-04 03:26N 36°45' W 122°25'115 8.3
2016-Feb-03 13:33N 35°03' W 121°19'2311.1
2016-Feb-03 11:31N 34°44' W 121°05'1111.0
2016-Feb-03 10:33N 34°34' W 120°59'2310.4
2016-Feb-03 08:21N 34°23' W 120°35'116 7.8
2016-Feb-02 17:31N 33°40' W 118°25'11 5.5
2016-Feb-02 15:33N 33°39' W 118°12'6 5.9
2016-Feb-02 14:33N 33°45' W 118°13'1 0.8
2016-Feb-02 13:28N 33°45' W 118°14'0 0.0
2016-Feb-02 12:28N 33°45' W 118°14'0 0.0
2016-Feb-02 11:28N 33°45' W 118°14'0 0.0
2016-Feb-02 10:28N 33°45' W 118°14'0 0.0
2016-Feb-02 09:31N 33°45' W 118°14'0 0.0
2016-Feb-02 08:31N 33°45' W 118°14'0 0.0
2016-Feb-02 07:31N 33°45' W 118°14'0 0.0
2016-Feb-02 06:31N 33°45' W 118°14'0 0.0
2016-Feb-02 05:31N 33°45' W 118°14'0 0.0
2016-Feb-02 04:31N 33°45' W 118°14'0 0.0
2016-Feb-02 03:31N 33°45' W 118°14'0 0.0
2016-Feb-02 02:31N 33°45' W 118°14'0 0.0
2016-Feb-01 22:22N 33°45' W 118°14'0 0.0
2016-Feb-01 19:31N 33°45' W 118°14'0 0.0
2016-Feb-01 18:31N 33°45' W 118°14'0 0.0
2016-Feb-01 17:31N 33°45' W 118°14'0 0.0
2016-Feb-01 16:28N 33°45' W 118°14'0 0.0
2016-Feb-01 15:31N 33°45' W 118°14'0 0.0
2016-Feb-01 14:31N 33°45' W 118°14'0 0.0
2016-Feb-01 13:31N 33°45' W 118°14'0 0.0
2016-Feb-01 12:31N 33°45' W 118°14'0 0.0
2016-Feb-01 11:31N 33°45' W 118°14'0 0.0
2016-Feb-01 10:31N 33°45' W 118°14'0 0.0
2016-Feb-01 08:16N 33°45' W 118°14'0 0.0
2016-Feb-01 07:31N 33°45' W 118°14'0 0.0
2016-Feb-01 06:31N 33°45' W 118°14'0 0.0
2016-Feb-01 05:31N 33°45' W 118°14'0 0.0
2016-Feb-01 04:31N 33°45' W 118°14'0 0.0
2016-Feb-01 03:28N 33°45' W 118°14'0 0.0
2016-Feb-01 02:31N 33°45' W 118°14'0 0.0
2016-Feb-01 01:07N 33°45' W 118°14'0 0.0
2016-Feb-01 00:28N 33°45' W 118°14'0 0.0
2016-Jan-31 23:31N 33°45' W 118°14'0 0.0
2016-Jan-31 14:04N 33°45' W 118°14'0 0.0
2016-Jan-31 13:19N 33°45' W 118°14'0 0.0
2016-Jan-31 12:31N 33°45' W 118°14'0 0.0
2016-Jan-31 11:31N 33°45' W 118°14'0 0.0
2016-Jan-31 10:31N 33°45' W 118°14'0 0.0
2016-Jan-31 09:28N 33°45' W 118°14'0 0.0
2016-Jan-31 08:31N 33°45' W 118°14'0 0.0
2016-Jan-31 07:31N 33°45' W 118°14'0 0.0
2016-Jan-31 06:25N 33°45' W 118°14'0 0.0
2016-Jan-31 05:31N 33°45' W 118°14'0 0.0
2016-Jan-31 04:28N 33°45' W 118°14'0 0.0
2016-Jan-31 03:25N 33°45' W 118°14'0 0.0
2016-Jan-30 22:31N 33°45' W 118°14'0 0.0
2016-Jan-30 21:31N 33°45' W 118°14'0 0.0
2016-Jan-30 20:25N 33°45' W 118°14'0 0.0
2016-Jan-30 19:28N 33°45' W 118°14'0 0.0
2016-Jan-30 18:31N 33°45' W 118°14'0 0.0
2016-Jan-30 17:31N 33°45' W 118°14'0 0.0
2016-Jan-30 10:28N 33°45' W 118°14'0 0.0
2016-Jan-30 09:04N 33°45' W 118°14'0 0.0
2016-Jan-30 08:28N 33°45' W 118°14'0 0.0
2016-Jan-30 07:13N 33°45' W 118°14'0 0.0
2016-Jan-30 05:31N 33°45' W 118°14'0 0.0
2016-Jan-30 04:25N 33°45' W 118°14'0 0.0
2016-Jan-30 02:31N 33°45' W 118°14'0 0.0
2016-Jan-30 01:31N 33°45' W 118°14'0 0.0
2016-Jan-29 23:19N 33°45' W 118°14'0 0.0
2016-Jan-29 21:31N 33°45' W 118°14'0 0.0
2016-Jan-29 20:28N 33°45' W 118°14'0 0.0
2016-Jan-29 19:31N 33°45' W 118°14'0 0.0
2016-Jan-29 18:28N 33°45' W 118°14'0 0.1
2016-Jan-29 17:31N 33°45' W 118°14'0 0.0
2016-Jan-29 15:22N 33°45' W 118°14'0 0.1
2016-Jan-29 14:31N 33°45' W 118°14'0 0.0
2016-Jan-29 13:16N 33°45' W 118°14'0 0.0
2016-Jan-29 12:22N 33°45' W 118°14'0 0.0
2016-Jan-29 11:28N 33°45' W 118°14'0 0.0
2016-Jan-29 10:31N 33°45' W 118°14'0 0.0
2016-Jan-29 09:31N 33°45' W 118°14'0 0.0
2016-Jan-29 08:31N 33°45' W 118°14'0 0.0
2016-Jan-29 07:31N 33°45' W 118°14'0 0.0
2016-Jan-29 06:31N 33°45' W 118°14'0 0.0
2016-Jan-29 05:31N 33°45' W 118°14'0 0.0
2016-Jan-29 04:31N 33°45' W 118°14'0 0.0
2016-Jan-29 03:31N 33°45' W 118°14'0 0.0
2016-Jan-29 02:31N 33°45' W 118°14'0 0.0
2016-Jan-29 01:31N 33°45' W 118°14'0 0.0
2016-Jan-29 00:31N 33°45' W 118°14'0 0.0
2016-Jan-28 23:31N 33°45' W 118°14'1 1.1
2016-Jan-28 22:33N 33°45' W 118°13'6 6.1
2016-Jan-28 21:33N 33°39' W 118°12'7 7.4
2016-Jan-28 20:33N 33°36' W 118°20'9 9.4
2016-Jan-28 19:34N 33°40' W 118°30'1010.1
2016-Jan-28 18:33N 33°46' W 118°41'9 9.4
2016-Jan-28 17:34N 33°50' W 118°51'9 9.3
2016-Jan-28 16:34N 33°55' W 119°00'1311.4
2016-Jan-28 15:23N 34°02' W 119°14'1113.2
2016-Jan-28 14:33N 34°05' W 119°27'11912.7
2016-Jan-28 05:10N 34°24' W 121°49'812.4
2016-Jan-28 04:33N 34°24' W 121°58'  
Track history (hours):
 
Tides and Currents Weather Stations Pressure Air Temp Water Temp Dewpoint Dewpoint Depression Visibility Wind Speed Wind Dir Waves Ship Positions

Gerd Maersk

Last reported at 2016-Feb-06 04:18 UTC. Time now 2016-Feb-07 10:37 UTC.
Position N 38°10' W 125°06'.

Length 367 m; draft 12.1 m.

Type: Ship (hazmat cat A). MMSI: 220415000.

Date/timePositionNaut miles runAvg speedWind from/ knotsBaromVisibWave heightAir tempDewpointWater temp
2016-Feb-06 04:18N 38°10' W 125°06'1011.4
2016-Feb-06 03:26N 38°10' W 124°53'1011.5
2016-Feb-06 02:33N 38°10' W 124°40'1111.5
2016-Feb-06 01:33N 38°09' W 124°26'1111.5
2016-Feb-06 00:33N 38°09' W 124°11'1111.4
2016-Feb-05 23:33N 38°09' W 123°57'1111.5
2016-Feb-05 22:33N 38°09' W 123°42'1111.3
2016-Feb-05 21:33N 38°09' W 123°28'9 9.4
2016-Feb-05 20:33N 38°05' W 123°17'1110.8
2016-Feb-05 19:33N 37°58' W 123°07'1211.6
2016-Feb-05 18:33N 37°52' W 122°54'1212.1
2016-Feb-05 17:33N 37°46' W 122°41'1413.8
2016-Feb-05 16:33N 37°50' W 122°24'4 4.0
2016-Feb-05 15:33N 37°49' W 122°19'0 0.0
2016-Feb-05 14:33N 37°49' W 122°19'0 0.0
2016-Feb-05 13:33N 37°49' W 122°19'0 0.0
2016-Feb-05 12:33N 37°49' W 122°19'0 0.0
2016-Feb-05 11:33N 37°49' W 122°19'0 0.0
2016-Feb-05 10:30N 37°49' W 122°19'0 0.0
2016-Feb-05 09:30N 37°49' W 122°19'0 0.0
2016-Feb-05 08:30N 37°49' W 122°19'0 0.0
2016-Feb-05 07:30N 37°49' W 122°19'0 0.0
2016-Feb-05 06:33N 37°49' W 122°19'0 0.0
2016-Feb-05 05:33N 37°49' W 122°19'0 0.0
2016-Feb-05 04:33N 37°49' W 122°19'0 0.0
2016-Feb-05 03:33N 37°49' W 122°19'0 0.0
2016-Feb-05 02:33N 37°49' W 122°19'0 0.0
2016-Feb-05 01:33N 37°49' W 122°19'0 0.0
2016-Feb-05 00:33N 37°49' W 122°19'0 0.0
2016-Feb-04 23:33N 37°49' W 122°19'0 0.0
2016-Feb-04 22:30N 37°49' W 122°19'0 0.0
2016-Feb-04 21:33N 37°49' W 122°19'0 0.0
2016-Feb-04 20:33N 37°49' W 122°19'0 0.0
2016-Feb-04 19:33N 37°49' W 122°19'0 0.0
2016-Feb-04 18:33N 37°49' W 122°19'0 0.0
2016-Feb-04 17:33N 37°49' W 122°19'0 0.0
2016-Feb-04 16:33N 37°49' W 122°19'0 0.0
2016-Feb-04 15:33N 37°49' W 122°19'0 0.0
2016-Feb-04 14:33N 37°49' W 122°19'0 0.0
2016-Feb-04 13:33N 37°49' W 122°19'0 0.0
2016-Feb-04 12:33N 37°49' W 122°19'0 0.0
2016-Feb-04 11:33N 37°49' W 122°19'4 3.6
2016-Feb-04 10:33N 37°49' W 122°24'1211.7
2016-Feb-04 09:33N 37°46' W 122°38'9 9.1
2016-Feb-04 08:33N 37°37' W 122°40'9 9.4
2016-Feb-04 07:33N 37°27' W 122°39'1110.7
2016-Feb-04 06:33N 37°17' W 122°39'1111.0
2016-Feb-04 05:33N 37°06' W 122°35'1110.6
2016-Feb-04 04:33N 36°56' W 122°31'1210.7
2016-Feb-04 03:26N 36°45' W 122°25'115 8.3
2016-Feb-03 13:33N 35°03' W 121°19'2311.1
2016-Feb-03 11:31N 34°44' W 121°05'1111.0
2016-Feb-03 10:33N 34°34' W 120°59'2310.4
2016-Feb-03 08:21N 34°23' W 120°35'116 7.8
2016-Feb-02 17:31N 33°40' W 118°25'11 5.5
2016-Feb-02 15:33N 33°39' W 118°12'6 5.9
2016-Feb-02 14:33N 33°45' W 118°13'1 0.8
2016-Feb-02 13:28N 33°45' W 118°14'0 0.0
2016-Feb-02 12:28N 33°45' W 118°14'0 0.0
2016-Feb-02 11:28N 33°45' W 118°14'0 0.0
2016-Feb-02 10:28N 33°45' W 118°14'0 0.0
2016-Feb-02 09:31N 33°45' W 118°14'0 0.0
2016-Feb-02 08:31N 33°45' W 118°14'0 0.0
2016-Feb-02 07:31N 33°45' W 118°14'0 0.0
2016-Feb-02 06:31N 33°45' W 118°14'0 0.0
2016-Feb-02 05:31N 33°45' W 118°14'0 0.0
2016-Feb-02 04:31N 33°45' W 118°14'0 0.0
2016-Feb-02 03:31N 33°45' W 118°14'0 0.0
2016-Feb-02 02:31N 33°45' W 118°14'0 0.0
2016-Feb-01 22:22N 33°45' W 118°14'0 0.0
2016-Feb-01 19:31N 33°45' W 118°14'0 0.0
2016-Feb-01 18:31N 33°45' W 118°14'0 0.0
2016-Feb-01 17:31N 33°45' W 118°14'0 0.0
2016-Feb-01 16:28N 33°45' W 118°14'0 0.0
2016-Feb-01 15:31N 33°45' W 118°14'0 0.0
2016-Feb-01 14:31N 33°45' W 118°14'0 0.0
2016-Feb-01 13:31N 33°45' W 118°14'0 0.0
2016-Feb-01 12:31N 33°45' W 118°14'0 0.0
2016-Feb-01 11:31N 33°45' W 118°14'0 0.0
2016-Feb-01 10:31N 33°45' W 118°14'0 0.0
2016-Feb-01 08:16N 33°45' W 118°14'0 0.0
2016-Feb-01 07:31N 33°45' W 118°14'0 0.0
2016-Feb-01 06:31N 33°45' W 118°14'0 0.0
2016-Feb-01 05:31N 33°45' W 118°14'0 0.0
2016-Feb-01 04:31N 33°45' W 118°14'0 0.0
2016-Feb-01 03:28N 33°45' W 118°14'0 0.0
2016-Feb-01 02:31N 33°45' W 118°14'0 0.0
2016-Feb-01 01:07N 33°45' W 118°14'0 0.0
2016-Feb-01 00:28N 33°45' W 118°14'0 0.0
2016-Jan-31 23:31N 33°45' W 118°14'0 0.0
2016-Jan-31 14:04N 33°45' W 118°14'0 0.0
2016-Jan-31 13:19N 33°45' W 118°14'0 0.0
2016-Jan-31 12:31N 33°45' W 118°14'0 0.0
2016-Jan-31 11:31N 33°45' W 118°14'0 0.0
2016-Jan-31 10:31N 33°45' W 118°14'0 0.0
2016-Jan-31 09:28N 33°45' W 118°14'0 0.0
2016-Jan-31 08:31N 33°45' W 118°14'0 0.0
2016-Jan-31 07:31N 33°45' W 118°14'0 0.0
2016-Jan-31 06:25N 33°45' W 118°14'0 0.0
2016-Jan-31 05:31N 33°45' W 118°14'0 0.0
2016-Jan-31 04:28N 33°45' W 118°14'0 0.0
2016-Jan-31 03:25N 33°45' W 118°14'0 0.0
2016-Jan-30 22:31N 33°45' W 118°14'0 0.0
2016-Jan-30 21:31N 33°45' W 118°14'0 0.0
2016-Jan-30 20:25N 33°45' W 118°14'0 0.0
2016-Jan-30 19:28N 33°45' W 118°14'0 0.0
2016-Jan-30 18:31N 33°45' W 118°14'0 0.0
2016-Jan-30 17:31N 33°45' W 118°14'0 0.0
2016-Jan-30 10:28N 33°45' W 118°14'0 0.0
2016-Jan-30 09:04N 33°45' W 118°14'0 0.0
2016-Jan-30 08:28N 33°45' W 118°14'0 0.0
2016-Jan-30 07:13N 33°45' W 118°14'0 0.0
2016-Jan-30 05:31N 33°45' W 118°14'0 0.0
2016-Jan-30 04:25N 33°45' W 118°14'0 0.0
2016-Jan-30 02:31N 33°45' W 118°14'0 0.0
2016-Jan-30 01:31N 33°45' W 118°14'0 0.0
2016-Jan-29 23:19N 33°45' W 118°14'0 0.0
2016-Jan-29 21:31N 33°45' W 118°14'0 0.0
2016-Jan-29 20:28N 33°45' W 118°14'0 0.0
2016-Jan-29 19:31N 33°45' W 118°14'0 0.0
2016-Jan-29 18:28N 33°45' W 118°14'0 0.1
2016-Jan-29 17:31N 33°45' W 118°14'0 0.0
2016-Jan-29 15:22N 33°45' W 118°14'0 0.1
2016-Jan-29 14:31N 33°45' W 118°14'0 0.0
2016-Jan-29 13:16N 33°45' W 118°14'0 0.0
2016-Jan-29 12:22N 33°45' W 118°14'0 0.0
2016-Jan-29 11:28N 33°45' W 118°14'0 0.0
2016-Jan-29 10:31N 33°45' W 118°14'0 0.0
2016-Jan-29 09:31N 33°45' W 118°14'0 0.0
2016-Jan-29 08:31N 33°45' W 118°14'0 0.0
2016-Jan-29 07:31N 33°45' W 118°14'0 0.0
2016-Jan-29 06:31N 33°45' W 118°14'0 0.0
2016-Jan-29 05:31N 33°45' W 118°14'0 0.0
2016-Jan-29 04:31N 33°45' W 118°14'0 0.0
2016-Jan-29 03:31N 33°45' W 118°14'0 0.0
2016-Jan-29 02:31N 33°45' W 118°14'0 0.0
2016-Jan-29 01:31N 33°45' W 118°14'0 0.0
2016-Jan-29 00:31N 33°45' W 118°14'0 0.0
2016-Jan-28 23:31N 33°45' W 118°14'1 1.1
2016-Jan-28 22:33N 33°45' W 118°13'6 6.1
2016-Jan-28 21:33N 33°39' W 118°12'7 7.4
2016-Jan-28 20:33N 33°36' W 118°20'9 9.4
2016-Jan-28 19:34N 33°40' W 118°30'1010.1
2016-Jan-28 18:33N 33°46' W 118°41'9 9.4
2016-Jan-28 17:34N 33°50' W 118°51'9 9.3
2016-Jan-28 16:34N 33°55' W 119°00'1311.4
2016-Jan-28 15:23N 34°02' W 119°14'1113.2
2016-Jan-28 14:33N 34°05' W 119°27'11912.7
2016-Jan-28 05:10N 34°24' W 121°49'812.4
2016-Jan-28 04:33N 34°24' W 121°58'  

Dump ship's entire track history